sensor_id;sensor_type;location;lat;lon;timestamp;P1;durP1;ratioP1;P2;durP2;ratioP2
60038;SDS011;45916;52.734;6.544;2024-01-27T00:00:06;19.52;;;5.82;;
60038;SDS011;45916;52.734;6.544;2024-01-27T00:02:33;16.00;;;6.70;;
60038;SDS011;45916;52.734;6.544;2024-01-27T00:04:58;20.58;;;6.70;;
60038;SDS011;45916;52.734;6.544;2024-01-27T00:07:24;21.08;;;6.45;;
60038;SDS011;45916;52.734;6.544;2024-01-27T00:09:52;21.37;;;7.47;;
60038;SDS011;45916;52.734;6.544;2024-01-27T00:12:17;19.58;;;7.10;;
60038;SDS011;45916;52.734;6.544;2024-01-27T00:14:43;20.27;;;6.82;;
60038;SDS011;45916;52.734;6.544;2024-01-27T00:17:09;15.57;;;6.57;;
60038;SDS011;45916;52.734;6.544;2024-01-27T00:19:35;21.30;;;6.88;;
60038;SDS011;45916;52.734;6.544;2024-01-27T00:22:01;13.85;;;6.38;;
60038;SDS011;45916;52.734;6.544;2024-01-27T00:24:27;17.48;;;6.00;;
60038;SDS011;45916;52.734;6.544;2024-01-27T00:26:53;21.35;;;6.20;;
60038;SDS011;45916;52.734;6.544;2024-01-27T00:29:19;22.05;;;6.20;;
60038;SDS011;45916;52.734;6.544;2024-01-27T00:31:45;20.60;;;6.95;;
60038;SDS011;45916;52.734;6.544;2024-01-27T00:34:10;21.00;;;6.45;;
60038;SDS011;45916;52.734;6.544;2024-01-27T00:36:36;20.50;;;6.30;;
60038;SDS011;45916;52.734;6.544;2024-01-27T00:39:02;19.45;;;7.03;;
60038;SDS011;45916;52.734;6.544;2024-01-27T00:41:28;20.17;;;6.43;;
60038;SDS011;45916;52.734;6.544;2024-01-27T00:43:54;20.67;;;7.93;;
60038;SDS011;45916;52.734;6.544;2024-01-27T00:46:20;17.70;;;5.60;;
60038;SDS011;45916;52.734;6.544;2024-01-27T00:48:45;18.05;;;6.53;;
60038;SDS011;45916;52.734;6.544;2024-01-27T00:51:12;19.85;;;6.65;;
60038;SDS011;45916;52.734;6.544;2024-01-27T00:53:38;19.73;;;6.10;;
60038;SDS011;45916;52.734;6.544;2024-01-27T00:56:04;22.80;;;5.93;;
60038;SDS011;45916;52.734;6.544;2024-01-27T00:58:30;17.25;;;5.72;;
60038;SDS011;45916;52.734;6.544;2024-01-27T01:00:56;18.52;;;5.85;;
60038;SDS011;45916;52.734;6.544;2024-01-27T01:03:23;15.15;;;6.22;;
60038;SDS011;45916;52.734;6.544;2024-01-27T01:05:49;19.92;;;7.22;;
60038;SDS011;45916;52.734;6.544;2024-01-27T01:08:15;20.30;;;5.95;;
60038;SDS011;45916;52.734;6.544;2024-01-27T01:10:40;16.25;;;6.35;;
60038;SDS011;45916;52.734;6.544;2024-01-27T01:13:06;22.25;;;6.70;;
60038;SDS011;45916;52.734;6.544;2024-01-27T01:15:32;16.10;;;6.07;;
60038;SDS011;45916;52.734;6.544;2024-01-27T01:17:58;22.65;;;6.00;;
60038;SDS011;45916;52.734;6.544;2024-01-27T01:20:23;14.15;;;5.75;;
60038;SDS011;45916;52.734;6.544;2024-01-27T01:22:51;18.55;;;7.15;;
60038;SDS011;45916;52.734;6.544;2024-01-27T01:25:17;21.13;;;6.07;;
60038;SDS011;45916;52.734;6.544;2024-01-27T01:27:42;17.77;;;6.97;;
60038;SDS011;45916;52.734;6.544;2024-01-27T01:30:08;20.60;;;7.78;;
60038;SDS011;45916;52.734;6.544;2024-01-27T01:32:34;13.00;;;6.32;;
60038;SDS011;45916;52.734;6.544;2024-01-27T01:35:00;20.65;;;7.00;;
60038;SDS011;45916;52.734;6.544;2024-01-27T01:37:26;15.05;;;6.63;;
60038;SDS011;45916;52.734;6.544;2024-01-27T01:39:51;18.85;;;6.70;;
60038;SDS011;45916;52.734;6.544;2024-01-27T01:42:17;19.42;;;7.30;;
60038;SDS011;45916;52.734;6.544;2024-01-27T01:44:45;18.75;;;5.60;;
60038;SDS011;45916;52.734;6.544;2024-01-27T01:47:11;15.45;;;5.75;;
60038;SDS011;45916;52.734;6.544;2024-01-27T01:49:37;17.00;;;6.38;;
60038;SDS011;45916;52.734;6.544;2024-01-27T01:52:02;13.63;;;6.65;;
60038;SDS011;45916;52.734;6.544;2024-01-27T01:54:29;16.65;;;6.60;;
60038;SDS011;45916;52.734;6.544;2024-01-27T01:56:56;15.88;;;6.45;;
60038;SDS011;45916;52.734;6.544;2024-01-27T01:59:23;19.52;;;6.70;;
60038;SDS011;45916;52.734;6.544;2024-01-27T02:01:49;15.10;;;6.43;;
60038;SDS011;45916;52.734;6.544;2024-01-27T02:04:14;17.45;;;6.30;;
60038;SDS011;45916;52.734;6.544;2024-01-27T02:06:40;16.70;;;6.50;;
60038;SDS011;45916;52.734;6.544;2024-01-27T02:09:06;17.52;;;6.43;;
60038;SDS011;45916;52.734;6.544;2024-01-27T02:11:31;19.48;;;7.65;;
60038;SDS011;45916;52.734;6.544;2024-01-27T02:13:57;16.25;;;6.57;;
60038;SDS011;45916;52.734;6.544;2024-01-27T02:16:23;16.90;;;6.43;;
60038;SDS011;45916;52.734;6.544;2024-01-27T02:18:48;15.68;;;6.47;;
60038;SDS011;45916;52.734;6.544;2024-01-27T02:21:14;21.05;;;6.65;;
60038;SDS011;45916;52.734;6.544;2024-01-27T02:23:40;17.10;;;6.80;;
60038;SDS011;45916;52.734;6.544;2024-01-27T02:26:05;17.80;;;6.05;;
60038;SDS011;45916;52.734;6.544;2024-01-27T02:28:32;13.82;;;7.00;;
60038;SDS011;45916;52.734;6.544;2024-01-27T02:30:58;16.13;;;7.45;;
60038;SDS011;45916;52.734;6.544;2024-01-27T02:33:27;20.48;;;6.65;;
60038;SDS011;45916;52.734;6.544;2024-01-27T02:35:53;20.63;;;7.35;;
60038;SDS011;45916;52.734;6.544;2024-01-27T02:38:19;25.35;;;6.80;;
60038;SDS011;45916;52.734;6.544;2024-01-27T02:40:45;20.80;;;6.70;;
60038;SDS011;45916;52.734;6.544;2024-01-27T02:43:11;18.15;;;7.13;;
60038;SDS011;45916;52.734;6.544;2024-01-27T02:45:36;19.65;;;6.72;;
60038;SDS011;45916;52.734;6.544;2024-01-27T02:48:02;15.77;;;6.47;;
60038;SDS011;45916;52.734;6.544;2024-01-27T02:50:28;18.35;;;7.47;;
60038;SDS011;45916;52.734;6.544;2024-01-27T02:52:54;19.17;;;6.65;;
60038;SDS011;45916;52.734;6.544;2024-01-27T02:55:19;16.90;;;6.78;;
60038;SDS011;45916;52.734;6.544;2024-01-27T02:57:45;18.27;;;6.55;;
60038;SDS011;45916;52.734;6.544;2024-01-27T03:00:11;18.25;;;7.28;;
60038;SDS011;45916;52.734;6.544;2024-01-27T03:02:37;13.35;;;6.35;;
60038;SDS011;45916;52.734;6.544;2024-01-27T03:05:02;19.15;;;6.10;;
60038;SDS011;45916;52.734;6.544;2024-01-27T03:07:28;15.90;;;6.05;;
60038;SDS011;45916;52.734;6.544;2024-01-27T03:09:54;18.20;;;6.32;;
60038;SDS011;45916;52.734;6.544;2024-01-27T03:12:20;22.67;;;6.40;;
60038;SDS011;45916;52.734;6.544;2024-01-27T03:14:48;16.42;;;7.13;;
60038;SDS011;45916;52.734;6.544;2024-01-27T03:17:14;18.60;;;6.35;;
60038;SDS011;45916;52.734;6.544;2024-01-27T03:19:40;13.68;;;5.75;;
60038;SDS011;45916;52.734;6.544;2024-01-27T03:22:06;19.02;;;6.50;;
60038;SDS011;45916;52.734;6.544;2024-01-27T03:24:32;21.10;;;7.15;;
60038;SDS011;45916;52.734;6.544;2024-01-27T03:26:57;16.63;;;6.40;;
60038;SDS011;45916;52.734;6.544;2024-01-27T03:29:23;16.88;;;7.55;;
60038;SDS011;45916;52.734;6.544;2024-01-27T03:31:49;19.23;;;6.68;;
60038;SDS011;45916;52.734;6.544;2024-01-27T03:34:15;17.02;;;6.72;;
60038;SDS011;45916;52.734;6.544;2024-01-27T03:36:42;16.35;;;6.50;;
60038;SDS011;45916;52.734;6.544;2024-01-27T03:39:08;20.73;;;6.30;;
60038;SDS011;45916;52.734;6.544;2024-01-27T03:41:34;18.70;;;6.07;;
60038;SDS011;45916;52.734;6.544;2024-01-27T03:43:59;22.30;;;6.82;;
60038;SDS011;45916;52.734;6.544;2024-01-27T03:46:25;22.33;;;7.03;;
60038;SDS011;45916;52.734;6.544;2024-01-27T03:48:51;15.15;;;6.00;;
60038;SDS011;45916;52.734;6.544;2024-01-27T03:51:16;19.40;;;6.60;;
60038;SDS011;45916;52.734;6.544;2024-01-27T03:53:42;17.73;;;5.45;;
60038;SDS011;45916;52.734;6.544;2024-01-27T03:56:11;16.67;;;6.05;;
60038;SDS011;45916;52.734;6.544;2024-01-27T03:58:37;18.73;;;6.78;;
60038;SDS011;45916;52.734;6.544;2024-01-27T04:01:03;18.52;;;5.82;;
60038;SDS011;45916;52.734;6.544;2024-01-27T04:03:29;22.02;;;6.25;;
60038;SDS011;45916;52.734;6.544;2024-01-27T04:05:55;17.98;;;6.47;;
60038;SDS011;45916;52.734;6.544;2024-01-27T04:08:21;19.48;;;6.72;;
60038;SDS011;45916;52.734;6.544;2024-01-27T04:10:46;17.40;;;6.40;;
60038;SDS011;45916;52.734;6.544;2024-01-27T04:13:12;17.20;;;6.82;;
60038;SDS011;45916;52.734;6.544;2024-01-27T04:15:38;16.35;;;6.03;;
60038;SDS011;45916;52.734;6.544;2024-01-27T04:18:04;14.85;;;5.43;;
60038;SDS011;45916;52.734;6.544;2024-01-27T04:20:33;15.07;;;5.93;;
60038;SDS011;45916;52.734;6.544;2024-01-27T04:22:59;22.33;;;6.78;;
60038;SDS011;45916;52.734;6.544;2024-01-27T04:25:25;16.75;;;6.35;;
60038;SDS011;45916;52.734;6.544;2024-01-27T04:27:51;17.85;;;6.68;;
60038;SDS011;45916;52.734;6.544;2024-01-27T04:30:17;21.67;;;8.07;;
60038;SDS011;45916;52.734;6.544;2024-01-27T04:32:42;15.65;;;6.32;;
60038;SDS011;45916;52.734;6.544;2024-01-27T04:35:08;20.70;;;6.20;;
60038;SDS011;45916;52.734;6.544;2024-01-27T04:37:35;17.38;;;6.05;;
60038;SDS011;45916;52.734;6.544;2024-01-27T04:40:01;19.02;;;6.53;;
60038;SDS011;45916;52.734;6.544;2024-01-27T04:42:28;18.17;;;6.05;;
60038;SDS011;45916;52.734;6.544;2024-01-27T04:44:54;15.07;;;5.90;;
60038;SDS011;45916;52.734;6.544;2024-01-27T04:47:19;19.48;;;6.68;;
60038;SDS011;45916;52.734;6.544;2024-01-27T04:49:45;18.20;;;6.65;;
60038;SDS011;45916;52.734;6.544;2024-01-27T04:52:11;21.13;;;7.70;;
60038;SDS011;45916;52.734;6.544;2024-01-27T04:54:36;17.50;;;6.50;;
60038;SDS011;45916;52.734;6.544;2024-01-27T04:57:02;14.90;;;6.55;;
60038;SDS011;45916;52.734;6.544;2024-01-27T04:59:28;21.58;;;8.00;;
60038;SDS011;45916;52.734;6.544;2024-01-27T05:01:53;15.38;;;7.18;;
60038;SDS011;45916;52.734;6.544;2024-01-27T05:04:19;17.42;;;7.28;;
60038;SDS011;45916;52.734;6.544;2024-01-27T05:06:45;15.70;;;6.85;;
60038;SDS011;45916;52.734;6.544;2024-01-27T05:09:11;20.40;;;6.60;;
60038;SDS011;45916;52.734;6.544;2024-01-27T05:11:37;12.35;;;6.25;;
60038;SDS011;45916;52.734;6.544;2024-01-27T05:14:02;20.27;;;6.65;;
60038;SDS011;45916;52.734;6.544;2024-01-27T05:16:28;21.45;;;8.38;;
60038;SDS011;45916;52.734;6.544;2024-01-27T05:18:54;22.83;;;8.20;;
60038;SDS011;45916;52.734;6.544;2024-01-27T05:21:20;18.88;;;7.05;;
60038;SDS011;45916;52.734;6.544;2024-01-27T05:23:45;22.73;;;8.68;;
60038;SDS011;45916;52.734;6.544;2024-01-27T05:26:11;16.27;;;7.22;;
60038;SDS011;45916;52.734;6.544;2024-01-27T05:28:37;18.73;;;9.85;;
60038;SDS011;45916;52.734;6.544;2024-01-27T05:31:07;20.10;;;7.87;;
60038;SDS011;45916;52.734;6.544;2024-01-27T05:33:34;24.48;;;8.05;;
60038;SDS011;45916;52.734;6.544;2024-01-27T05:36:00;20.70;;;7.85;;
60038;SDS011;45916;52.734;6.544;2024-01-27T05:38:25;18.30;;;8.52;;
60038;SDS011;45916;52.734;6.544;2024-01-27T05:40:53;15.73;;;7.85;;
60038;SDS011;45916;52.734;6.544;2024-01-27T05:43:19;18.73;;;8.30;;
60038;SDS011;45916;52.734;6.544;2024-01-27T05:45:45;21.67;;;9.35;;
60038;SDS011;45916;52.734;6.544;2024-01-27T05:48:11;20.67;;;8.98;;
60038;SDS011;45916;52.734;6.544;2024-01-27T05:50:37;22.25;;;7.95;;
60038;SDS011;45916;52.734;6.544;2024-01-27T05:53:05;20.25;;;8.48;;
60038;SDS011;45916;52.734;6.544;2024-01-27T05:55:30;23.98;;;9.88;;
60038;SDS011;45916;52.734;6.544;2024-01-27T05:57:56;19.55;;;8.43;;
60038;SDS011;45916;52.734;6.544;2024-01-27T06:00:22;20.00;;;9.63;;
60038;SDS011;45916;52.734;6.544;2024-01-27T06:02:48;22.08;;;9.25;;
60038;SDS011;45916;52.734;6.544;2024-01-27T06:05:14;19.40;;;10.02;;
60038;SDS011;45916;52.734;6.544;2024-01-27T06:07:40;18.80;;;10.07;;
60038;SDS011;45916;52.734;6.544;2024-01-27T06:10:09;24.65;;;11.63;;
60038;SDS011;45916;52.734;6.544;2024-01-27T06:12:35;19.95;;;10.02;;
60038;SDS011;45916;52.734;6.544;2024-01-27T06:15:01;21.80;;;10.98;;
60038;SDS011;45916;52.734;6.544;2024-01-27T06:17:28;23.55;;;9.70;;
60038;SDS011;45916;52.734;6.544;2024-01-27T06:19:53;23.27;;;11.77;;
60038;SDS011;45916;52.734;6.544;2024-01-27T06:22:19;20.80;;;11.23;;
60038;SDS011;45916;52.734;6.544;2024-01-27T06:24:45;24.70;;;11.30;;
60038;SDS011;45916;52.734;6.544;2024-01-27T06:27:11;24.55;;;11.40;;
60038;SDS011;45916;52.734;6.544;2024-01-27T06:29:37;22.23;;;11.20;;
60038;SDS011;45916;52.734;6.544;2024-01-27T06:32:03;21.60;;;10.02;;
60038;SDS011;45916;52.734;6.544;2024-01-27T06:34:29;26.08;;;10.88;;
60038;SDS011;45916;52.734;6.544;2024-01-27T06:36:55;24.58;;;11.18;;
60038;SDS011;45916;52.734;6.544;2024-01-27T06:39:20;21.13;;;10.85;;
60038;SDS011;45916;52.734;6.544;2024-01-27T06:41:46;25.75;;;10.90;;
60038;SDS011;45916;52.734;6.544;2024-01-27T06:44:12;27.80;;;12.13;;
60038;SDS011;45916;52.734;6.544;2024-01-27T06:46:38;26.98;;;12.50;;
60038;SDS011;45916;52.734;6.544;2024-01-27T06:49:04;20.60;;;11.88;;
60038;SDS011;45916;52.734;6.544;2024-01-27T06:51:30;27.63;;;12.50;;
60038;SDS011;45916;52.734;6.544;2024-01-27T06:53:55;28.73;;;12.73;;
60038;SDS011;45916;52.734;6.544;2024-01-27T06:56:21;30.77;;;12.82;;
60038;SDS011;45916;52.734;6.544;2024-01-27T06:58:47;25.80;;;14.52;;
60038;SDS011;45916;52.734;6.544;2024-01-27T07:01:12;26.02;;;13.80;;
60038;SDS011;45916;52.734;6.544;2024-01-27T07:03:38;27.27;;;13.73;;
60038;SDS011;45916;52.734;6.544;2024-01-27T07:06:04;28.15;;;14.95;;
60038;SDS011;45916;52.734;6.544;2024-01-27T07:08:30;35.22;;;15.63;;
60038;SDS011;45916;52.734;6.544;2024-01-27T07:10:57;27.15;;;15.23;;
60038;SDS011;45916;52.734;6.544;2024-01-27T07:13:23;28.17;;;16.00;;
60038;SDS011;45916;52.734;6.544;2024-01-27T07:15:49;28.85;;;17.08;;
60038;SDS011;45916;52.734;6.544;2024-01-27T07:18:15;33.67;;;17.13;;
60038;SDS011;45916;52.734;6.544;2024-01-27T07:20:42;25.38;;;15.43;;
60038;SDS011;45916;52.734;6.544;2024-01-27T07:23:08;30.88;;;17.20;;
60038;SDS011;45916;52.734;6.544;2024-01-27T07:25:34;29.45;;;16.85;;
60038;SDS011;45916;52.734;6.544;2024-01-27T07:27:59;32.33;;;17.10;;
60038;SDS011;45916;52.734;6.544;2024-01-27T07:30:25;32.83;;;18.48;;
60038;SDS011;45916;52.734;6.544;2024-01-27T07:32:51;33.78;;;20.35;;
60038;SDS011;45916;52.734;6.544;2024-01-27T07:35:16;32.38;;;19.73;;
60038;SDS011;45916;52.734;6.544;2024-01-27T07:37:42;36.88;;;19.80;;
60038;SDS011;45916;52.734;6.544;2024-01-27T07:40:08;32.10;;;19.35;;
60038;SDS011;45916;52.734;6.544;2024-01-27T07:42:34;32.08;;;20.73;;
60038;SDS011;45916;52.734;6.544;2024-01-27T07:45:00;41.22;;;21.45;;
60038;SDS011;45916;52.734;6.544;2024-01-27T07:47:26;35.38;;;21.73;;
60038;SDS011;45916;52.734;6.544;2024-01-27T07:49:52;37.35;;;21.60;;
60038;SDS011;45916;52.734;6.544;2024-01-27T07:52:18;42.20;;;22.83;;
60038;SDS011;45916;52.734;6.544;2024-01-27T07:54:44;30.35;;;19.23;;
60038;SDS011;45916;52.734;6.544;2024-01-27T07:57:10;40.10;;;22.60;;
60038;SDS011;45916;52.734;6.544;2024-01-27T07:59:37;37.60;;;23.00;;
60038;SDS011;45916;52.734;6.544;2024-01-27T08:02:03;40.55;;;24.98;;
60038;SDS011;45916;52.734;6.544;2024-01-27T08:04:29;35.92;;;22.70;;
60038;SDS011;45916;52.734;6.544;2024-01-27T08:06:54;43.75;;;25.75;;
60038;SDS011;45916;52.734;6.544;2024-01-27T08:09:20;38.08;;;27.35;;
60038;SDS011;45916;52.734;6.544;2024-01-27T08:11:46;46.90;;;28.10;;
60038;SDS011;45916;52.734;6.544;2024-01-27T08:14:16;43.40;;;29.10;;
60038;SDS011;45916;52.734;6.544;2024-01-27T08:16:42;33.80;;;25.25;;
60038;SDS011;45916;52.734;6.544;2024-01-27T08:19:08;39.03;;;25.50;;
60038;SDS011;45916;52.734;6.544;2024-01-27T08:21:33;27.73;;;20.33;;
60038;SDS011;45916;52.734;6.544;2024-01-27T08:23:59;27.55;;;19.02;;
60038;SDS011;45916;52.734;6.544;2024-01-27T08:26:25;24.13;;;13.93;;
60038;SDS011;45916;52.734;6.544;2024-01-27T08:28:51;19.27;;;13.57;;
60038;SDS011;45916;52.734;6.544;2024-01-27T08:31:16;21.92;;;13.48;;
60038;SDS011;45916;52.734;6.544;2024-01-27T08:33:42;21.77;;;13.18;;
60038;SDS011;45916;52.734;6.544;2024-01-27T08:36:12;20.63;;;13.35;;
60038;SDS011;45916;52.734;6.544;2024-01-27T08:38:39;19.48;;;10.50;;
60038;SDS011;45916;52.734;6.544;2024-01-27T08:41:04;16.90;;;10.55;;
60038;SDS011;45916;52.734;6.544;2024-01-27T08:43:30;14.70;;;11.10;;
60038;SDS011;45916;52.734;6.544;2024-01-27T08:45:56;16.23;;;10.85;;
60038;SDS011;45916;52.734;6.544;2024-01-27T08:48:21;16.67;;;10.52;;
60038;SDS011;45916;52.734;6.544;2024-01-27T08:50:47;19.98;;;11.48;;
60038;SDS011;45916;52.734;6.544;2024-01-27T08:53:13;19.33;;;10.25;;
60038;SDS011;45916;52.734;6.544;2024-01-27T08:55:38;15.52;;;10.43;;
60038;SDS011;45916;52.734;6.544;2024-01-27T08:58:04;15.98;;;9.23;;
60038;SDS011;45916;52.734;6.544;2024-01-27T09:00:30;15.05;;;9.30;;
60038;SDS011;45916;52.734;6.544;2024-01-27T09:02:56;16.05;;;8.88;;
60038;SDS011;45916;52.734;6.544;2024-01-27T09:05:22;16.05;;;8.93;;
60038;SDS011;45916;52.734;6.544;2024-01-27T09:07:47;14.02;;;8.98;;
60038;SDS011;45916;52.734;6.544;2024-01-27T09:10:13;18.48;;;9.70;;
60038;SDS011;45916;52.734;6.544;2024-01-27T09:12:40;14.75;;;10.13;;
60038;SDS011;45916;52.734;6.544;2024-01-27T09:15:07;14.50;;;9.38;;
60038;SDS011;45916;52.734;6.544;2024-01-27T09:17:32;15.75;;;9.52;;
60038;SDS011;45916;52.734;6.544;2024-01-27T09:19:58;14.38;;;8.85;;
60038;SDS011;45916;52.734;6.544;2024-01-27T09:22:24;17.58;;;8.80;;
60038;SDS011;45916;52.734;6.544;2024-01-27T09:24:51;17.13;;;9.98;;
60038;SDS011;45916;52.734;6.544;2024-01-27T09:27:17;16.35;;;9.40;;
60038;SDS011;45916;52.734;6.544;2024-01-27T09:29:43;13.80;;;9.00;;
60038;SDS011;45916;52.734;6.544;2024-01-27T09:32:08;16.17;;;9.55;;
60038;SDS011;45916;52.734;6.544;2024-01-27T09:34:34;15.52;;;8.90;;
60038;SDS011;45916;52.734;6.544;2024-01-27T09:37:00;14.82;;;9.88;;
60038;SDS011;45916;52.734;6.544;2024-01-27T09:39:26;15.23;;;8.65;;
60038;SDS011;45916;52.734;6.544;2024-01-27T09:41:52;15.10;;;8.50;;
60038;SDS011;45916;52.734;6.544;2024-01-27T09:44:19;13.37;;;8.70;;
60038;SDS011;45916;52.734;6.544;2024-01-27T09:46:46;16.30;;;9.32;;
60038;SDS011;45916;52.734;6.544;2024-01-27T09:49:13;15.85;;;8.48;;
60038;SDS011;45916;52.734;6.544;2024-01-27T09:51:41;17.23;;;8.00;;
60038;SDS011;45916;52.734;6.544;2024-01-27T09:54:07;14.88;;;8.30;;
60038;SDS011;45916;52.734;6.544;2024-01-27T09:56:33;15.13;;;8.15;;
60038;SDS011;45916;52.734;6.544;2024-01-27T09:59:00;13.82;;;9.30;;
60038;SDS011;45916;52.734;6.544;2024-01-27T10:01:26;13.88;;;8.40;;
60038;SDS011;45916;52.734;6.544;2024-01-27T10:03:53;13.63;;;7.88;;
60038;SDS011;45916;52.734;6.544;2024-01-27T10:06:20;14.38;;;8.10;;
60038;SDS011;45916;52.734;6.544;2024-01-27T10:08:55;11.82;;;7.35;;
60038;SDS011;45916;52.734;6.544;2024-01-27T10:11:21;15.43;;;8.18;;
60038;SDS011;45916;52.734;6.544;2024-01-27T10:13:54;14.52;;;7.93;;
60038;SDS011;45916;52.734;6.544;2024-01-27T10:16:21;13.55;;;7.85;;
60038;SDS011;45916;52.734;6.544;2024-01-27T10:18:47;12.18;;;7.78;;
60038;SDS011;45916;52.734;6.544;2024-01-27T10:21:16;13.35;;;7.72;;
60038;SDS011;45916;52.734;6.544;2024-01-27T10:23:43;12.25;;;7.28;;
60038;SDS011;45916;52.734;6.544;2024-01-27T10:26:09;13.80;;;8.05;;
60038;SDS011;45916;52.734;6.544;2024-01-27T10:28:35;12.90;;;6.95;;
60038;SDS011;45916;52.734;6.544;2024-01-27T10:31:08;14.63;;;7.80;;
60038;SDS011;45916;52.734;6.544;2024-01-27T10:33:37;12.18;;;6.90;;
60038;SDS011;45916;52.734;6.544;2024-01-27T10:36:16;13.75;;;7.05;;
60038;SDS011;45916;52.734;6.544;2024-01-27T10:38:41;14.98;;;7.63;;
60038;SDS011;45916;52.734;6.544;2024-01-27T10:41:08;14.38;;;7.57;;
60038;SDS011;45916;52.734;6.544;2024-01-27T10:43:38;11.82;;;6.90;;
60038;SDS011;45916;52.734;6.544;2024-01-27T10:46:05;14.95;;;7.53;;
60038;SDS011;45916;52.734;6.544;2024-01-27T10:48:33;11.55;;;7.22;;
60038;SDS011;45916;52.734;6.544;2024-01-27T10:51:09;17.88;;;8.50;;
60038;SDS011;45916;52.734;6.544;2024-01-27T10:53:35;12.43;;;7.75;;
60038;SDS011;45916;52.734;6.544;2024-01-27T10:56:03;17.15;;;8.15;;
60038;SDS011;45916;52.734;6.544;2024-01-27T10:58:34;15.77;;;7.90;;
60038;SDS011;45916;52.734;6.544;2024-01-27T11:01:10;12.55;;;6.85;;
60038;SDS011;45916;52.734;6.544;2024-01-27T11:03:38;15.90;;;7.50;;
60038;SDS011;45916;52.734;6.544;2024-01-27T11:06:05;12.70;;;6.90;;
60038;SDS011;45916;52.734;6.544;2024-01-27T11:08:33;13.55;;;6.78;;
60038;SDS011;45916;52.734;6.544;2024-01-27T11:10:59;15.18;;;7.63;;
60038;SDS011;45916;52.734;6.544;2024-01-27T11:13:27;16.58;;;7.13;;
60038;SDS011;45916;52.734;6.544;2024-01-27T11:15:55;13.85;;;6.45;;
60038;SDS011;45916;52.734;6.544;2024-01-27T11:18:21;14.38;;;7.10;;
60038;SDS011;45916;52.734;6.544;2024-01-27T11:20:47;13.13;;;7.05;;
60038;SDS011;45916;52.734;6.544;2024-01-27T11:23:13;13.93;;;7.50;;
60038;SDS011;45916;52.734;6.544;2024-01-27T11:25:39;13.93;;;7.10;;
60038;SDS011;45916;52.734;6.544;2024-01-27T11:28:12;13.10;;;6.60;;
60038;SDS011;45916;52.734;6.544;2024-01-27T11:30:44;12.68;;;7.75;;
60038;SDS011;45916;52.734;6.544;2024-01-27T11:33:14;15.27;;;7.20;;
60038;SDS011;45916;52.734;6.544;2024-01-27T11:35:40;13.60;;;7.10;;
60038;SDS011;45916;52.734;6.544;2024-01-27T11:38:06;14.45;;;6.90;;
60038;SDS011;45916;52.734;6.544;2024-01-27T11:40:32;13.48;;;7.63;;
60038;SDS011;45916;52.734;6.544;2024-01-27T11:42:59;15.10;;;6.88;;
60038;SDS011;45916;52.734;6.544;2024-01-27T11:45:26;17.35;;;7.55;;
60038;SDS011;45916;52.734;6.544;2024-01-27T11:47:55;16.20;;;6.55;;
60038;SDS011;45916;52.734;6.544;2024-01-27T11:50:21;16.00;;;7.35;;
60038;SDS011;45916;52.734;6.544;2024-01-27T11:52:48;17.00;;;7.70;;
60038;SDS011;45916;52.734;6.544;2024-01-27T11:55:14;13.82;;;7.03;;
60038;SDS011;45916;52.734;6.544;2024-01-27T11:57:44;14.77;;;6.82;;
60038;SDS011;45916;52.734;6.544;2024-01-27T12:00:10;13.75;;;7.47;;
60038;SDS011;45916;52.734;6.544;2024-01-27T12:02:37;14.98;;;7.03;;
60038;SDS011;45916;52.734;6.544;2024-01-27T12:05:08;12.48;;;7.38;;
60038;SDS011;45916;52.734;6.544;2024-01-27T12:07:34;14.43;;;7.15;;
60038;SDS011;45916;52.734;6.544;2024-01-27T12:10:00;13.93;;;7.20;;
60038;SDS011;45916;52.734;6.544;2024-01-27T12:12:25;15.63;;;7.93;;
60038;SDS011;45916;52.734;6.544;2024-01-27T12:14:51;17.38;;;8.45;;
60038;SDS011;45916;52.734;6.544;2024-01-27T12:17:17;19.13;;;8.38;;
60038;SDS011;45916;52.734;6.544;2024-01-27T12:19:48;20.30;;;8.95;;
60038;SDS011;45916;52.734;6.544;2024-01-27T12:22:24;15.73;;;8.43;;
60038;SDS011;45916;52.734;6.544;2024-01-27T12:24:54;15.88;;;8.55;;
60038;SDS011;45916;52.734;6.544;2024-01-27T12:27:21;17.23;;;8.45;;
60038;SDS011;45916;52.734;6.544;2024-01-27T12:29:48;15.38;;;7.53;;
60038;SDS011;45916;52.734;6.544;2024-01-27T12:32:15;16.15;;;8.38;;
60038;SDS011;45916;52.734;6.544;2024-01-27T12:34:44;18.80;;;9.85;;
60038;SDS011;45916;52.734;6.544;2024-01-27T12:37:11;15.38;;;8.45;;
60038;SDS011;45916;52.734;6.544;2024-01-27T12:39:40;16.17;;;8.85;;
60038;SDS011;45916;52.734;6.544;2024-01-27T12:42:08;16.88;;;8.75;;
60038;SDS011;45916;52.734;6.544;2024-01-27T12:44:33;16.00;;;8.90;;
60038;SDS011;45916;52.734;6.544;2024-01-27T12:46:59;15.70;;;9.48;;
60038;SDS011;45916;52.734;6.544;2024-01-27T12:49:26;17.80;;;7.32;;
60038;SDS011;45916;52.734;6.544;2024-01-27T12:51:52;17.33;;;7.38;;
60038;SDS011;45916;52.734;6.544;2024-01-27T12:54:17;17.10;;;8.23;;
60038;SDS011;45916;52.734;6.544;2024-01-27T12:56:44;16.85;;;7.15;;
60038;SDS011;45916;52.734;6.544;2024-01-27T12:59:10;13.80;;;7.22;;
60038;SDS011;45916;52.734;6.544;2024-01-27T13:01:36;17.23;;;8.38;;
60038;SDS011;45916;52.734;6.544;2024-01-27T13:04:02;22.20;;;8.45;;
60038;SDS011;45916;52.734;6.544;2024-01-27T13:06:28;20.05;;;8.20;;
60038;SDS011;45916;52.734;6.544;2024-01-27T13:08:53;16.75;;;8.32;;
60038;SDS011;45916;52.734;6.544;2024-01-27T13:11:20;19.60;;;9.35;;
60038;SDS011;45916;52.734;6.544;2024-01-27T13:13:45;16.48;;;8.20;;
60038;SDS011;45916;52.734;6.544;2024-01-27T13:16:11;16.17;;;7.68;;
60038;SDS011;45916;52.734;6.544;2024-01-27T13:18:37;18.58;;;7.95;;
60038;SDS011;45916;52.734;6.544;2024-01-27T13:21:03;15.73;;;7.50;;
60038;SDS011;45916;52.734;6.544;2024-01-27T13:23:31;15.65;;;7.10;;
60038;SDS011;45916;52.734;6.544;2024-01-27T13:25:57;15.57;;;6.93;;
60038;SDS011;45916;52.734;6.544;2024-01-27T13:28:22;18.20;;;8.00;;
60038;SDS011;45916;52.734;6.544;2024-01-27T13:30:48;18.30;;;7.32;;
60038;SDS011;45916;52.734;6.544;2024-01-27T13:33:15;15.38;;;8.00;;
60038;SDS011;45916;52.734;6.544;2024-01-27T13:35:41;14.45;;;6.93;;
60038;SDS011;45916;52.734;6.544;2024-01-27T13:38:15;15.63;;;7.35;;
60038;SDS011;45916;52.734;6.544;2024-01-27T13:40:45;14.05;;;6.88;;
60038;SDS011;45916;52.734;6.544;2024-01-27T13:43:10;15.48;;;7.38;;
60038;SDS011;45916;52.734;6.544;2024-01-27T13:45:36;12.68;;;6.53;;
60038;SDS011;45916;52.734;6.544;2024-01-27T13:48:02;12.10;;;6.43;;
60038;SDS011;45916;52.734;6.544;2024-01-27T13:50:28;15.43;;;7.13;;
60038;SDS011;45916;52.734;6.544;2024-01-27T13:52:56;16.20;;;7.57;;
60038;SDS011;45916;52.734;6.544;2024-01-27T13:55:23;17.50;;;7.50;;
60038;SDS011;45916;52.734;6.544;2024-01-27T13:57:49;15.25;;;7.30;;
60038;SDS011;45916;52.734;6.544;2024-01-27T14:00:15;13.48;;;6.75;;
60038;SDS011;45916;52.734;6.544;2024-01-27T14:02:42;16.70;;;7.75;;
60038;SDS011;45916;52.734;6.544;2024-01-27T14:05:08;13.82;;;6.43;;
60038;SDS011;45916;52.734;6.544;2024-01-27T14:07:34;13.70;;;6.97;;
60038;SDS011;45916;52.734;6.544;2024-01-27T14:10:00;14.80;;;6.53;;
60038;SDS011;45916;52.734;6.544;2024-01-27T14:12:26;21.90;;;7.35;;
60038;SDS011;45916;52.734;6.544;2024-01-27T14:14:52;13.10;;;7.15;;
60038;SDS011;45916;52.734;6.544;2024-01-27T14:17:18;13.70;;;6.50;;
60038;SDS011;45916;52.734;6.544;2024-01-27T14:19:47;12.25;;;5.75;;
60038;SDS011;45916;52.734;6.544;2024-01-27T14:22:12;11.88;;;6.85;;
60038;SDS011;45916;52.734;6.544;2024-01-27T14:24:38;14.82;;;5.88;;